createdAt,value
2022-11-20T00:02:34.641Z,100190.34
2022-11-20T00:05:37.573Z,100190.19
2022-11-20T00:08:40.601Z,100189.94
2022-11-20T00:11:43.974Z,100186.34
2022-11-20T00:14:50.019Z,100188.38
2022-11-20T00:17:55.955Z,100190.75
2022-11-20T00:21:03.557Z,100197.31
2022-11-20T00:24:11.755Z,100205.34
2022-11-20T00:27:14.411Z,100235.97
2022-11-20T00:30:22.043Z,100232.12
2022-11-20T00:33:30.093Z,100205.47
2022-11-20T00:36:36.925Z,100222.72
2022-11-20T00:39:41.569Z,100236.34
2022-11-20T00:42:44.835Z,100229.53
2022-11-20T00:45:49.755Z,100214.34
2022-11-20T00:48:57.824Z,100216.72
2022-11-20T00:52:00.645Z,100206.87
2022-11-20T00:55:04.743Z,100204.03
2022-11-20T00:58:13.074Z,100196.19
2022-11-20T01:01:41.134Z,100198.78
2022-11-20T01:04:46.923Z,100190.09
2022-11-20T01:07:53.155Z,100192.16
2022-11-20T01:11:00.648Z,100202.97
2022-11-20T01:14:21.204Z,100204.19
2022-11-20T01:17:24.097Z,100197.47
2022-11-20T01:20:27.095Z,100199.56
2022-11-20T01:23:33.282Z,100197.66
2022-11-20T01:26:40.506Z,100194.19
2022-11-20T01:29:43.410Z,100209.72
2022-11-20T01:32:48.918Z,100209.25
2022-11-20T01:35:52.247Z,100202.44
2022-11-20T01:39:02.464Z,100208.53
2022-11-20T01:42:24.147Z,100200.94
2022-11-20T01:46:00.128Z,100215.69
2022-11-20T01:49:23.589Z,100194.75
2022-11-20T01:52:37.373Z,100191.50
2022-11-20T01:55:52.507Z,100188.50
2022-11-20T01:58:59.378Z,100175.22
2022-11-20T02:02:02.187Z,100189.75
2022-11-20T02:05:18.103Z,100180.97
2022-11-20T02:08:21.126Z,100174.94
2022-11-20T02:11:24.148Z,100194.34
2022-11-20T02:14:29.014Z,100201.41
2022-11-20T02:17:31.754Z,100205.50
2022-11-20T02:20:34.885Z,100202.78
2022-11-20T02:23:44.188Z,100191.91
2022-11-20T02:27:12.875Z,100196.41
2022-11-20T02:30:21.770Z,100202.22
2022-11-20T02:33:24.617Z,100196.59
2022-11-20T02:36:29.174Z,100180.16
2022-11-20T02:39:53.485Z,100173.78
2022-11-20T02:43:00.248Z,100179.34
2022-11-20T02:46:03.300Z,100175.59
2022-11-20T02:49:09.288Z,100173.59
2022-11-20T02:52:12.198Z,100182.19
2022-11-20T02:55:18.699Z,100183.75
2022-11-20T02:58:24.962Z,100169.78
2022-11-20T03:01:28.322Z,100158.59
2022-11-20T03:04:30.843Z,100153.41
2022-11-20T03:07:38.878Z,100144.97
2022-11-20T03:10:42.144Z,100142.56
2022-11-20T03:13:45.562Z,100147.78
2022-11-20T03:16:48.533Z,100148.75
2022-11-20T03:19:52.143Z,100149.00
2022-11-20T03:22:56.490Z,100161.84
2022-11-20T03:26:13.201Z,100173.03
2022-11-20T03:29:15.706Z,100169.84
2022-11-20T03:32:18.742Z,100182.84
2022-11-20T03:35:25.123Z,100183.91
2022-11-20T03:38:32.063Z,100175.47
2022-11-20T03:41:41.042Z,100168.63
2022-11-20T03:44:44.572Z,100162.66
2022-11-20T03:47:49.582Z,100148.41
2022-11-20T03:51:07.388Z,100152.47
2022-11-20T03:54:12.114Z,100154.47
2022-11-20T03:57:19.101Z,100153.03
2022-11-20T04:00:21.562Z,100146.28
2022-11-20T04:03:25.775Z,100144.84
2022-11-20T04:06:31.535Z,100139.41
2022-11-20T04:09:35.073Z,100141.44
2022-11-20T04:12:37.533Z,100129.00
2022-11-20T04:15:40.512Z,100124.97
2022-11-20T04:18:47.674Z,100116.84
2022-11-20T04:21:55.459Z,100110.97
2022-11-20T04:25:00.810Z,100106.91
2022-11-20T04:28:10.135Z,100122.59
2022-11-20T04:31:17.224Z,100124.22
2022-11-20T04:34:40.154Z,100125.37
2022-11-20T04:37:47.177Z,100122.16
2022-11-20T04:40:54.527Z,100133.00
2022-11-20T04:44:05.313Z,100132.37
2022-11-20T04:47:13.189Z,100126.16
2022-11-20T04:50:16.622Z,100122.97
2022-11-20T04:53:20.747Z,100097.47
2022-11-20T04:56:26.062Z,100103.47
2022-11-20T04:59:31.579Z,100098.47
2022-11-20T05:02:34.867Z,100093.69
2022-11-20T05:05:44.286Z,100095.88
2022-11-20T05:08:46.852Z,100108.91
2022-11-20T05:11:53.146Z,100119.19
2022-11-20T05:14:55.495Z,100115.94
2022-11-20T05:17:58.554Z,100103.53
2022-11-20T05:21:05.289Z,100104.97
2022-11-20T05:24:10.706Z,100096.09
2022-11-20T05:27:13.807Z,100082.88
2022-11-20T05:30:19.109Z,100088.88
2022-11-20T05:33:22.223Z,100074.00
2022-11-20T05:36:25.755Z,100061.59
2022-11-20T05:39:28.204Z,100071.63
2022-11-20T05:42:32.355Z,100085.06
2022-11-20T05:45:34.759Z,100098.88
2022-11-20T05:48:42.447Z,100092.66
2022-11-20T05:51:46.783Z,100081.66
2022-11-20T05:54:52.270Z,100076.03
2022-11-20T05:57:56.258Z,100081.47
2022-11-20T06:01:13.484Z,100095.34
2022-11-20T06:04:16.287Z,100099.94
2022-11-20T06:07:21.167Z,100096.75
2022-11-20T06:10:24.498Z,100097.31
2022-11-20T06:13:26.877Z,100120.41
2022-11-20T06:16:30.417Z,100105.37
2022-11-20T06:19:35.227Z,100082.09
2022-11-20T06:22:38.248Z,100088.53
2022-11-20T06:25:42.679Z,100094.97
2022-11-20T06:28:46.307Z,100097.19
2022-11-20T06:31:56.543Z,100113.44
2022-11-20T06:35:01.745Z,100122.66
2022-11-20T06:38:04.057Z,100135.31
2022-11-20T06:41:08.705Z,100144.38
2022-11-20T06:44:11.182Z,100144.00
2022-11-20T06:47:14.451Z,100143.59
2022-11-20T06:50:16.944Z,100146.03
2022-11-20T06:53:20.209Z,100153.69
2022-11-20T06:56:23.304Z,100138.84
2022-11-20T06:59:26.729Z,100121.75
2022-11-20T07:02:29.993Z,100124.34
2022-11-20T07:05:33.861Z,100129.97
2022-11-20T07:08:37.169Z,100126.78
2022-11-20T07:11:48.301Z,100115.69
2022-11-20T07:14:51.862Z,100123.72
2022-11-20T07:17:55.376Z,100128.34
2022-11-20T07:21:04.608Z,100129.94
2022-11-20T07:24:11.703Z,100132.75
2022-11-20T07:27:16.265Z,100130.75
2022-11-20T07:30:19.573Z,100136.53
2022-11-20T07:33:22.306Z,100144.38
2022-11-20T07:36:27.355Z,100155.66
2022-11-20T07:39:30.065Z,100154.44
2022-11-20T07:42:33.479Z,100155.25
2022-11-20T07:45:42.649Z,100156.47
2022-11-20T07:48:48.583Z,100168.09
2022-11-20T07:51:55.127Z,100162.69
2022-11-20T07:54:58.643Z,100163.72
2022-11-20T07:58:05.346Z,100165.72
2022-11-20T08:01:13.315Z,100164.91
2022-11-20T08:04:17.616Z,100145.37
2022-11-20T08:07:22.386Z,100144.56
2022-11-20T08:10:26.295Z,100145.97
2022-11-20T08:13:50.190Z,100140.31
2022-11-20T08:17:13.535Z,100152.63
2022-11-20T08:20:18.485Z,100148.97
2022-11-20T08:23:41.250Z,100138.66
2022-11-20T08:26:46.471Z,100136.25
2022-11-20T08:29:49.435Z,100140.03
2022-11-20T08:32:51.913Z,100136.16
2022-11-20T08:36:02.713Z,100142.50
2022-11-20T08:39:05.322Z,100148.47
2022-11-20T08:42:11.366Z,100152.03
2022-11-20T08:45:14.173Z,100150.06
2022-11-20T08:48:36.770Z,100140.25
2022-11-20T08:51:41.050Z,100145.53
2022-11-20T08:54:48.412Z,100145.69
2022-11-20T08:57:52.827Z,100161.06
2022-11-20T09:00:57.604Z,100168.78
2022-11-20T09:04:00.815Z,100176.13
2022-11-20T09:07:04.465Z,100189.16
2022-11-20T09:10:23.743Z,100173.13
2022-11-20T09:13:48.666Z,100175.00
2022-11-20T09:16:51.554Z,100173.88
2022-11-20T09:19:55.199Z,100183.25
2022-11-20T09:22:58.704Z,100195.72
2022-11-20T09:26:16.137Z,100189.59
2022-11-20T09:29:23.378Z,100183.09
2022-11-20T09:32:29.675Z,100175.41
2022-11-20T09:35:32.116Z,100163.09
2022-11-20T09:38:37.895Z,100161.63
2022-11-20T09:42:20.571Z,100164.59
2022-11-20T09:45:47.132Z,100169.56
2022-11-20T09:49:36.251Z,100162.66
2022-11-20T09:53:03.077Z,100152.16
2022-11-20T09:56:18.370Z,100157.72
2022-11-20T09:59:45.671Z,100149.84
2022-11-20T10:03:13.638Z,100146.97
2022-11-20T10:06:29.098Z,100142.94
2022-11-20T10:09:38.045Z,100140.97
2022-11-20T10:13:02.171Z,100139.25
2022-11-20T10:16:44.251Z,100126.25
2022-11-20T10:20:23.549Z,100116.69
2022-11-20T10:23:54.815Z,100108.28
2022-11-20T10:27:07.602Z,100100.66
2022-11-20T10:30:14.845Z,100110.12
2022-11-20T10:33:29.026Z,100104.78
2022-11-20T10:36:51.429Z,100113.88
2022-11-20T10:40:11.272Z,100099.06
2022-11-20T10:43:20.880Z,100107.84
2022-11-20T10:46:46.910Z,100107.22
2022-11-20T10:50:06.182Z,100102.72
2022-11-20T10:53:48.899Z,100093.88
2022-11-20T10:56:58.919Z,100100.09
2022-11-20T11:00:11.254Z,100102.28
2022-11-20T11:03:24.806Z,100114.41
2022-11-20T11:06:36.257Z,100128.97
2022-11-20T11:09:48.759Z,100128.47
2022-11-20T11:12:51.775Z,100134.88
2022-11-20T11:15:58.293Z,100130.44
2022-11-20T11:19:25.571Z,100135.47
2022-11-20T11:23:29.812Z,100130.78
2022-11-20T11:26:36.525Z,100119.31
2022-11-20T11:29:44.207Z,100104.31
2022-11-20T11:32:48.334Z,100102.72
2022-11-20T11:36:17.515Z,100114.63
2022-11-20T11:39:22.486Z,100104.22
2022-11-20T11:42:34.519Z,100107.38
2022-11-20T11:45:56.289Z,100101.09
2022-11-20T11:49:06.722Z,100099.28
2022-11-20T11:52:18.358Z,100087.63
2022-11-20T11:55:36.011Z,100085.97
2022-11-20T11:58:53.803Z,100082.69
2022-11-20T12:02:09.674Z,100084.19
2022-11-20T12:05:46.403Z,100083.94
2022-11-20T12:08:56.852Z,100088.88
2022-11-20T12:12:10.109Z,100085.94
2022-11-20T12:15:30.133Z,100068.91
2022-11-20T12:18:34.126Z,100069.69
2022-11-20T12:22:26.583Z,100081.78
2022-11-20T12:25:57.149Z,100076.34
2022-11-20T12:29:23.493Z,100071.16
2022-11-20T12:33:27.312Z,100071.25
2022-11-20T12:37:20.280Z,100071.44
2022-11-20T12:40:50.061Z,100085.47
2022-11-20T12:44:49.271Z,100080.56
2022-11-20T12:48:35.076Z,100078.84
2022-11-20T12:52:04.586Z,100087.47
2022-11-20T12:55:26.242Z,100094.28
2022-11-20T12:59:37.871Z,100093.72
2022-11-20T13:03:09.040Z,100085.47
2022-11-20T13:06:31.961Z,100087.91
2022-11-20T13:10:19.521Z,100080.53
2022-11-20T13:13:30.965Z,100083.31
2022-11-20T13:17:18.626Z,100080.09
2022-11-20T13:20:25.977Z,100088.22
2022-11-20T13:24:05.868Z,100086.75
2022-11-20T13:27:21.932Z,100076.12
2022-11-20T13:30:28.845Z,100065.59
2022-11-20T13:34:37.220Z,100069.91
2022-11-20T13:37:40.647Z,100068.41
2022-11-20T13:41:25.096Z,100056.38
2022-11-20T13:44:36.599Z,100056.28
2022-11-20T13:47:49.707Z,100047.59
2022-11-20T13:51:25.050Z,100044.53
2022-11-20T13:54:28.170Z,100035.66
2022-11-20T13:58:07.339Z,100034.56
2022-11-20T14:01:55.230Z,100040.25
2022-11-20T14:05:03.148Z,100045.84
2022-11-20T14:08:14.070Z,100032.25
2022-11-20T14:11:20.382Z,100043.53
2022-11-20T14:14:28.957Z,100042.66
2022-11-20T14:17:37.409Z,100043.66
2022-11-20T14:21:03.038Z,100042.50
2022-11-20T14:24:11.798Z,100055.47
2022-11-20T14:27:43.137Z,100059.47
2022-11-20T14:30:49.078Z,100059.81
2022-11-20T14:33:57.703Z,100062.16
2022-11-20T14:37:09.508Z,100065.34
2022-11-20T14:40:32.259Z,100073.75
2022-11-20T14:43:38.724Z,100074.03
2022-11-20T14:46:41.993Z,100078.31
2022-11-20T14:49:49.231Z,100074.66
2022-11-20T14:53:00.051Z,100076.84
2022-11-20T14:56:06.727Z,100084.66
2022-11-20T14:59:11.911Z,100089.53
2022-11-20T15:02:20.255Z,100091.50
2022-11-20T15:05:47.481Z,100102.06
2022-11-20T15:08:55.006Z,100091.84
2022-11-20T15:12:22.299Z,100089.78
2022-11-20T15:15:55.994Z,100097.66
2022-11-20T15:18:59.484Z,100099.94
2022-11-20T15:22:14.028Z,100099.09
2022-11-20T15:25:18.550Z,100102.81
2022-11-20T15:28:36.802Z,100099.47
2022-11-20T15:31:46.322Z,100096.38
2022-11-20T15:34:49.952Z,100101.91
2022-11-20T15:38:01.265Z,100101.97
2022-11-20T15:41:06.363Z,100107.47
2022-11-20T15:44:12.108Z,100110.53
2022-11-20T15:47:18.295Z,100118.19
2022-11-20T15:50:22.969Z,100114.63
2022-11-20T15:53:26.573Z,100109.41
2022-11-20T15:56:29.387Z,100111.06
2022-11-20T15:59:44.461Z,100106.22
2022-11-20T16:02:47.779Z,100112.88
2022-11-20T16:05:52.630Z,100104.25
2022-11-20T16:08:57.613Z,100098.81
2022-11-20T16:12:31.286Z,100100.03
2022-11-20T16:15:47.759Z,100108.88
2022-11-20T16:18:57.500Z,100109.09
2022-11-20T16:22:03.190Z,100102.47
2022-11-20T16:25:08.899Z,100100.84
2022-11-20T16:28:16.104Z,100102.28
2022-11-20T16:31:23.867Z,100101.03
2022-11-20T16:34:28.294Z,100104.69
2022-11-20T16:37:31.645Z,100102.28
2022-11-20T16:40:34.517Z,100098.66
2022-11-20T16:43:44.767Z,100088.22
2022-11-20T16:46:47.427Z,100083.19
2022-11-20T16:50:11.014Z,100091.00
2022-11-20T16:53:15.735Z,100089.81
2022-11-20T16:56:24.551Z,100088.19
2022-11-20T16:59:27.322Z,100083.38
2022-11-20T17:02:41.238Z,100081.34
2022-11-20T17:05:44.410Z,100084.56
2022-11-20T17:08:52.351Z,100082.75
2022-11-20T17:11:57.832Z,100078.53
2022-11-20T17:15:12.684Z,100076.91
2022-11-20T17:18:15.445Z,100071.06
2022-11-20T17:21:22.191Z,100062.81
2022-11-20T17:24:30.498Z,100058.78
2022-11-20T17:28:03.751Z,100055.94
2022-11-20T17:31:14.287Z,100060.72
2022-11-20T17:34:21.963Z,100047.69
2022-11-20T17:37:27.654Z,100044.25
2022-11-20T17:40:34.133Z,100041.00
2022-11-20T17:43:40.445Z,100033.59
2022-11-20T17:46:43.038Z,100030.94
2022-11-20T17:49:46.266Z,100025.94
2022-11-20T17:52:49.064Z,100032.75
2022-11-20T17:56:17.325Z,100034.09
2022-11-20T17:59:21.940Z,100037.72
2022-11-20T18:02:25.119Z,100040.50
2022-11-20T18:05:52.920Z,100039.88
2022-11-20T18:08:59.031Z,100053.25
2022-11-20T18:12:03.194Z,100058.22
2022-11-20T18:15:08.632Z,100060.41
2022-11-20T18:18:12.433Z,100068.75
2022-11-20T18:21:15.256Z,100065.75
2022-11-20T18:24:20.057Z,100076.31
2022-11-20T18:27:24.931Z,100083.50
2022-11-20T18:30:30.710Z,100094.53
2022-11-20T18:33:33.735Z,100095.13
2022-11-20T18:36:36.819Z,100102.47
2022-11-20T18:39:39.378Z,100101.91
2022-11-20T18:43:01.667Z,100105.13
2022-11-20T18:46:05.100Z,100107.53
2022-11-20T18:49:13.087Z,100113.34
2022-11-20T18:52:15.539Z,100114.31
2022-11-20T18:55:18.810Z,100109.66
2022-11-20T18:58:21.294Z,100106.81
2022-11-20T19:01:44.596Z,100110.41
2022-11-20T19:04:51.704Z,100110.12
2022-11-20T19:08:00.831Z,100110.53
2022-11-20T19:11:12.017Z,100105.22
2022-11-20T19:14:22.239Z,100101.37
2022-11-20T19:17:27.899Z,100110.12
2022-11-20T19:20:34.587Z,100112.88
2022-11-20T19:23:40.431Z,100114.63
2022-11-20T19:27:08.589Z,100113.41
2022-11-20T19:30:58.674Z,100099.38
2022-11-20T19:34:44.310Z,100088.81
2022-11-20T19:37:48.867Z,100084.28
2022-11-20T19:40:55.764Z,100082.03
2022-11-20T19:44:03.924Z,100084.37
2022-11-20T19:47:14.388Z,100090.34
2022-11-20T19:50:17.979Z,100081.66
2022-11-20T19:53:22.951Z,100090.91
2022-11-20T19:56:27.443Z,100076.56
2022-11-20T19:59:31.272Z,100071.00
2022-11-20T20:02:35.750Z,100068.16
2022-11-20T20:05:39.542Z,100068.16
2022-11-20T20:08:45.056Z,100070.56
2022-11-20T20:11:48.251Z,100069.59
2022-11-20T20:14:52.506Z,100061.41
2022-11-20T20:17:56.054Z,100048.38
2022-11-20T20:21:03.885Z,100055.31
2022-11-20T20:24:11.031Z,100061.84
2022-11-20T20:27:15.334Z,100062.94
2022-11-20T20:30:18.495Z,100050.34
2022-11-20T20:33:23.051Z,100041.66
2022-11-20T20:36:26.562Z,100049.28
2022-11-20T20:39:31.205Z,100038.06
2022-11-20T20:42:38.321Z,100042.03
2022-11-20T20:45:48.402Z,100033.97
2022-11-20T20:48:54.650Z,100037.56
2022-11-20T20:52:02.319Z,100037.50
2022-11-20T20:55:06.843Z,100042.12
2022-11-20T20:58:09.949Z,100051.91
2022-11-20T21:01:17.114Z,100047.94
2022-11-20T21:04:19.778Z,100032.31
2022-11-20T21:07:23.426Z,100045.03
2022-11-20T21:10:28.373Z,100046.69
2022-11-20T21:13:35.615Z,100049.12
2022-11-20T21:16:43.987Z,100054.41
2022-11-20T21:19:50.756Z,100057.47
2022-11-20T21:22:55.218Z,100058.28
2022-11-20T21:26:06.077Z,100054.59
2022-11-20T21:29:30.087Z,100056.19
2022-11-20T21:32:33.261Z,100055.75
2022-11-20T21:35:36.473Z,100055.59
2022-11-20T21:38:59.936Z,100052.00
2022-11-20T21:42:14.876Z,100049.41
2022-11-20T21:46:17.674Z,100061.37
2022-11-20T21:49:22.696Z,100054.88
2022-11-20T21:52:28.465Z,100047.41
2022-11-20T21:55:33.244Z,100055.31
2022-11-20T21:58:43.958Z,100047.69
2022-11-20T22:02:08.688Z,100049.22
2022-11-20T22:05:12.823Z,100047.53
2022-11-20T22:08:16.668Z,100050.69
2022-11-20T22:11:23.087Z,100034.81
2022-11-20T22:14:36.871Z,100027.94
2022-11-20T22:18:03.105Z,100028.56
2022-11-20T22:21:09.378Z,100017.56
2022-11-20T22:24:15.570Z,100015.69
2022-11-20T22:27:18.623Z,100000.72
2022-11-20T22:30:26.643Z,100013.97
2022-11-20T22:33:30.858Z,100014.97
2022-11-20T22:36:37.406Z,100012.59
2022-11-20T22:39:40.137Z,100007.69
2022-11-20T22:42:52.080Z,100004.03
2022-11-20T22:46:16.788Z,99992.63
2022-11-20T22:49:20.751Z,100003.25
2022-11-20T22:52:23.435Z,99985.19
2022-11-20T22:55:27.679Z,99990.41
2022-11-20T22:58:31.821Z,99983.66
2022-11-20T23:01:37.652Z,99982.75
2022-11-20T23:04:40.092Z,99971.19
2022-11-20T23:07:44.323Z,99978.91
2022-11-20T23:10:47.484Z,99985.47
2022-11-20T23:13:58.857Z,99981.06
2022-11-20T23:17:03.189Z,99975.78
2022-11-20T23:20:07.872Z,99976.16
2022-11-20T23:23:11.780Z,99986.91
2022-11-20T23:26:17.136Z,99980.69
2022-11-20T23:29:20.514Z,99984.69
2022-11-20T23:32:27.551Z,99981.72
2022-11-20T23:35:30.418Z,99983.31
2022-11-20T23:38:36.682Z,99979.13
2022-11-20T23:41:39.060Z,99973.31
2022-11-20T23:44:46.739Z,99970.72
2022-11-20T23:47:49.645Z,99967.31
2022-11-20T23:50:56.882Z,99965.78
2022-11-20T23:54:04.879Z,99965.78
2022-11-20T23:57:11.932Z,99960.38
